sensor_id;sensor_type;location;lat;lon;timestamp;P1;durP1;ratioP1;P2;durP2;ratioP2
11935;SDS011;6027;48.576;9.180;2024-03-25T00:00:13;2.73;;;1.70;;
11935;SDS011;6027;48.576;9.180;2024-03-25T00:02:40;4.07;;;2.00;;
11935;SDS011;6027;48.576;9.180;2024-03-25T00:05:06;2.60;;;1.90;;
11935;SDS011;6027;48.576;9.180;2024-03-25T00:07:34;3.80;;;2.20;;
11935;SDS011;6027;48.576;9.180;2024-03-25T00:10:00;4.47;;;2.10;;
11935;SDS011;6027;48.576;9.180;2024-03-25T00:12:26;3.40;;;1.93;;
11935;SDS011;6027;48.576;9.180;2024-03-25T00:14:52;5.07;;;2.10;;
11935;SDS011;6027;48.576;9.180;2024-03-25T00:17:17;6.17;;;2.13;;
11935;SDS011;6027;48.576;9.180;2024-03-25T00:19:44;4.27;;;2.10;;
11935;SDS011;6027;48.576;9.180;2024-03-25T00:22:16;3.47;;;1.60;;
11935;SDS011;6027;48.576;9.180;2024-03-25T00:24:42;5.07;;;2.10;;
11935;SDS011;6027;48.576;9.180;2024-03-25T00:27:08;2.93;;;2.23;;
11935;SDS011;6027;48.576;9.180;2024-03-25T00:29:33;3.50;;;2.07;;
11935;SDS011;6027;48.576;9.180;2024-03-25T00:31:58;3.83;;;1.93;;
11935;SDS011;6027;48.576;9.180;2024-03-25T00:34:24;2.67;;;1.80;;
11935;SDS011;6027;48.576;9.180;2024-03-25T00:36:49;5.10;;;2.13;;
11935;SDS011;6027;48.576;9.180;2024-03-25T00:39:15;2.87;;;1.97;;
11935;SDS011;6027;48.576;9.180;2024-03-25T00:41:43;3.93;;;2.07;;
11935;SDS011;6027;48.576;9.180;2024-03-25T00:44:08;5.83;;;2.30;;
11935;SDS011;6027;48.576;9.180;2024-03-25T00:46:35;3.67;;;2.03;;
11935;SDS011;6027;48.576;9.180;2024-03-25T00:49:01;5.83;;;2.30;;
11935;SDS011;6027;48.576;9.180;2024-03-25T00:51:26;5.97;;;2.27;;
11935;SDS011;6027;48.576;9.180;2024-03-25T00:53:51;6.70;;;2.20;;
11935;SDS011;6027;48.576;9.180;2024-03-25T00:56:17;4.07;;;2.10;;
11935;SDS011;6027;48.576;9.180;2024-03-25T00:58:42;3.00;;;1.97;;
11935;SDS011;6027;48.576;9.180;2024-03-25T01:01:08;3.03;;;2.47;;
11935;SDS011;6027;48.576;9.180;2024-03-25T01:03:33;6.60;;;2.63;;
11935;SDS011;6027;48.576;9.180;2024-03-25T01:05:59;4.20;;;2.40;;
11935;SDS011;6027;48.576;9.180;2024-03-25T01:08:24;2.93;;;2.10;;
11935;SDS011;6027;48.576;9.180;2024-03-25T01:10:50;4.67;;;2.73;;
11935;SDS011;6027;48.576;9.180;2024-03-25T01:13:15;3.03;;;2.30;;
11935;SDS011;6027;48.576;9.180;2024-03-25T01:15:41;5.03;;;2.60;;
11935;SDS011;6027;48.576;9.180;2024-03-25T01:18:07;4.87;;;1.90;;
11935;SDS011;6027;48.576;9.180;2024-03-25T01:20:33;3.87;;;2.30;;
11935;SDS011;6027;48.576;9.180;2024-03-25T01:22:58;3.60;;;2.00;;
11935;SDS011;6027;48.576;9.180;2024-03-25T01:25:24;3.37;;;2.13;;
11935;SDS011;6027;48.576;9.180;2024-03-25T01:27:50;4.93;;;2.83;;
11935;SDS011;6027;48.576;9.180;2024-03-25T01:30:16;5.60;;;2.30;;
11935;SDS011;6027;48.576;9.180;2024-03-25T01:32:44;4.07;;;2.40;;
11935;SDS011;6027;48.576;9.180;2024-03-25T01:35:11;4.40;;;2.40;;
11935;SDS011;6027;48.576;9.180;2024-03-25T01:37:37;3.73;;;2.40;;
11935;SDS011;6027;48.576;9.180;2024-03-25T01:40:03;3.13;;;2.13;;
11935;SDS011;6027;48.576;9.180;2024-03-25T01:42:29;2.97;;;2.27;;
11935;SDS011;6027;48.576;9.180;2024-03-25T01:44:55;4.07;;;2.00;;
11935;SDS011;6027;48.576;9.180;2024-03-25T01:47:20;4.23;;;2.30;;
11935;SDS011;6027;48.576;9.180;2024-03-25T01:49:46;5.53;;;2.67;;
11935;SDS011;6027;48.576;9.180;2024-03-25T01:52:12;6.00;;;2.80;;
11935;SDS011;6027;48.576;9.180;2024-03-25T01:54:38;3.90;;;2.40;;
11935;SDS011;6027;48.576;9.180;2024-03-25T01:57:03;5.97;;;2.67;;
11935;SDS011;6027;48.576;9.180;2024-03-25T01:59:29;4.23;;;2.67;;
11935;SDS011;6027;48.576;9.180;2024-03-25T02:01:54;5.03;;;3.10;;
11935;SDS011;6027;48.576;9.180;2024-03-25T02:04:21;7.07;;;3.70;;
11935;SDS011;6027;48.576;9.180;2024-03-25T02:06:46;4.23;;;2.30;;
11935;SDS011;6027;48.576;9.180;2024-03-25T02:09:12;7.37;;;4.40;;
11935;SDS011;6027;48.576;9.180;2024-03-25T02:11:38;3.70;;;2.20;;
11935;SDS011;6027;48.576;9.180;2024-03-25T02:14:04;4.03;;;2.33;;
11935;SDS011;6027;48.576;9.180;2024-03-25T02:16:31;4.47;;;2.37;;
11935;SDS011;6027;48.576;9.180;2024-03-25T02:18:56;3.27;;;2.30;;
11935;SDS011;6027;48.576;9.180;2024-03-25T02:21:22;4.03;;;2.70;;
11935;SDS011;6027;48.576;9.180;2024-03-25T02:23:47;4.07;;;2.57;;
11935;SDS011;6027;48.576;9.180;2024-03-25T02:26:15;3.67;;;2.20;;
11935;SDS011;6027;48.576;9.180;2024-03-25T02:28:40;3.57;;;2.33;;
11935;SDS011;6027;48.576;9.180;2024-03-25T02:31:06;3.77;;;2.13;;
11935;SDS011;6027;48.576;9.180;2024-03-25T02:33:31;4.33;;;2.10;;
11935;SDS011;6027;48.576;9.180;2024-03-25T02:35:56;3.80;;;2.47;;
11935;SDS011;6027;48.576;9.180;2024-03-25T02:38:22;3.40;;;2.07;;
11935;SDS011;6027;48.576;9.180;2024-03-25T02:40:48;4.17;;;2.20;;
11935;SDS011;6027;48.576;9.180;2024-03-25T02:43:18;3.17;;;2.10;;
11935;SDS011;6027;48.576;9.180;2024-03-25T02:45:46;3.73;;;2.17;;
11935;SDS011;6027;48.576;9.180;2024-03-25T02:48:12;5.30;;;2.63;;
11935;SDS011;6027;48.576;9.180;2024-03-25T02:50:37;3.73;;;2.27;;
11935;SDS011;6027;48.576;9.180;2024-03-25T02:53:02;3.70;;;2.40;;
11935;SDS011;6027;48.576;9.180;2024-03-25T02:55:28;5.27;;;2.80;;
11935;SDS011;6027;48.576;9.180;2024-03-25T02:57:53;3.70;;;2.37;;
11935;SDS011;6027;48.576;9.180;2024-03-25T03:00:19;4.27;;;2.57;;
11935;SDS011;6027;48.576;9.180;2024-03-25T03:02:44;4.80;;;2.43;;
11935;SDS011;6027;48.576;9.180;2024-03-25T03:05:10;4.10;;;2.60;;
11935;SDS011;6027;48.576;9.180;2024-03-25T03:07:35;5.00;;;2.90;;
11935;SDS011;6027;48.576;9.180;2024-03-25T03:10:01;3.80;;;2.20;;
11935;SDS011;6027;48.576;9.180;2024-03-25T03:12:26;4.53;;;2.50;;
11935;SDS011;6027;48.576;9.180;2024-03-25T03:14:52;2.57;;;2.30;;
11935;SDS011;6027;48.576;9.180;2024-03-25T03:17:17;4.47;;;2.20;;
11935;SDS011;6027;48.576;9.180;2024-03-25T03:19:42;4.87;;;2.20;;
11935;SDS011;6027;48.576;9.180;2024-03-25T03:22:08;3.03;;;2.40;;
11935;SDS011;6027;48.576;9.180;2024-03-25T03:24:33;5.17;;;2.47;;
11935;SDS011;6027;48.576;9.180;2024-03-25T03:26:59;4.50;;;2.33;;
11935;SDS011;6027;48.576;9.180;2024-03-25T03:29:24;5.43;;;2.40;;
11935;SDS011;6027;48.576;9.180;2024-03-25T03:31:50;2.97;;;2.27;;
11935;SDS011;6027;48.576;9.180;2024-03-25T03:34:15;5.13;;;2.67;;
11935;SDS011;6027;48.576;9.180;2024-03-25T03:36:40;3.83;;;2.30;;
11935;SDS011;6027;48.576;9.180;2024-03-25T03:39:06;4.97;;;2.73;;
11935;SDS011;6027;48.576;9.180;2024-03-25T03:41:34;3.97;;;2.70;;
11935;SDS011;6027;48.576;9.180;2024-03-25T03:43:59;5.67;;;2.57;;
11935;SDS011;6027;48.576;9.180;2024-03-25T03:46:25;3.23;;;2.30;;
11935;SDS011;6027;48.576;9.180;2024-03-25T03:48:50;6.67;;;2.77;;
11935;SDS011;6027;48.576;9.180;2024-03-25T03:51:16;6.07;;;2.80;;
11935;SDS011;6027;48.576;9.180;2024-03-25T03:53:41;3.87;;;2.30;;
11935;SDS011;6027;48.576;9.180;2024-03-25T03:56:06;4.70;;;2.17;;
11935;SDS011;6027;48.576;9.180;2024-03-25T03:58:32;3.57;;;2.80;;
11935;SDS011;6027;48.576;9.180;2024-03-25T04:00:59;3.07;;;2.60;;
11935;SDS011;6027;48.576;9.180;2024-03-25T04:03:24;4.77;;;2.70;;
11935;SDS011;6027;48.576;9.180;2024-03-25T04:05:50;3.93;;;2.60;;
11935;SDS011;6027;48.576;9.180;2024-03-25T04:08:15;5.83;;;2.70;;
11935;SDS011;6027;48.576;9.180;2024-03-25T04:10:41;3.10;;;2.20;;
11935;SDS011;6027;48.576;9.180;2024-03-25T04:13:08;3.80;;;2.50;;
11935;SDS011;6027;48.576;9.180;2024-03-25T04:15:34;5.37;;;2.60;;
11935;SDS011;6027;48.576;9.180;2024-03-25T04:18:01;3.43;;;2.43;;
11935;SDS011;6027;48.576;9.180;2024-03-25T04:20:27;4.57;;;2.97;;
11935;SDS011;6027;48.576;9.180;2024-03-25T04:22:53;3.20;;;2.20;;
11935;SDS011;6027;48.576;9.180;2024-03-25T04:25:19;4.00;;;2.40;;
11935;SDS011;6027;48.576;9.180;2024-03-25T04:27:44;5.70;;;2.53;;
11935;SDS011;6027;48.576;9.180;2024-03-25T04:30:10;4.57;;;2.50;;
11935;SDS011;6027;48.576;9.180;2024-03-25T04:32:37;3.90;;;2.40;;
11935;SDS011;6027;48.576;9.180;2024-03-25T04:35:03;3.93;;;2.70;;
11935;SDS011;6027;48.576;9.180;2024-03-25T04:37:32;4.73;;;2.70;;
11935;SDS011;6027;48.576;9.180;2024-03-25T04:39:59;6.43;;;2.40;;
11935;SDS011;6027;48.576;9.180;2024-03-25T04:42:25;4.83;;;2.90;;
11935;SDS011;6027;48.576;9.180;2024-03-25T04:44:51;4.93;;;2.40;;
11935;SDS011;6027;48.576;9.180;2024-03-25T04:47:16;3.47;;;2.80;;
11935;SDS011;6027;48.576;9.180;2024-03-25T04:49:43;4.80;;;2.83;;
11935;SDS011;6027;48.576;9.180;2024-03-25T04:52:09;4.30;;;2.43;;
11935;SDS011;6027;48.576;9.180;2024-03-25T04:54:35;4.20;;;2.40;;
11935;SDS011;6027;48.576;9.180;2024-03-25T04:57:00;4.33;;;2.57;;
11935;SDS011;6027;48.576;9.180;2024-03-25T04:59:26;3.90;;;3.07;;
11935;SDS011;6027;48.576;9.180;2024-03-25T05:01:51;5.00;;;2.97;;
11935;SDS011;6027;48.576;9.180;2024-03-25T05:04:18;3.83;;;2.77;;
11935;SDS011;6027;48.576;9.180;2024-03-25T05:06:43;4.23;;;2.47;;
11935;SDS011;6027;48.576;9.180;2024-03-25T05:09:09;4.70;;;2.73;;
11935;SDS011;6027;48.576;9.180;2024-03-25T05:11:35;5.73;;;3.50;;
11935;SDS011;6027;48.576;9.180;2024-03-25T05:14:01;5.10;;;3.17;;
11935;SDS011;6027;48.576;9.180;2024-03-25T05:16:26;5.47;;;2.87;;
11935;SDS011;6027;48.576;9.180;2024-03-25T05:18:51;5.03;;;3.07;;
11935;SDS011;6027;48.576;9.180;2024-03-25T05:21:17;5.90;;;3.03;;
11935;SDS011;6027;48.576;9.180;2024-03-25T05:23:42;5.57;;;2.60;;
11935;SDS011;6027;48.576;9.180;2024-03-25T05:26:08;3.87;;;2.50;;
11935;SDS011;6027;48.576;9.180;2024-03-25T05:28:33;5.67;;;3.10;;
11935;SDS011;6027;48.576;9.180;2024-03-25T05:31:08;4.17;;;2.87;;
11935;SDS011;6027;48.576;9.180;2024-03-25T05:33:34;9.10;;;2.70;;
11935;SDS011;6027;48.576;9.180;2024-03-25T05:36:00;4.37;;;2.60;;
11935;SDS011;6027;48.576;9.180;2024-03-25T05:38:29;6.30;;;2.50;;
11935;SDS011;6027;48.576;9.180;2024-03-25T05:40:55;4.63;;;2.73;;
11935;SDS011;6027;48.576;9.180;2024-03-25T05:43:21;6.00;;;2.70;;
11935;SDS011;6027;48.576;9.180;2024-03-25T05:45:51;3.77;;;2.80;;
11935;SDS011;6027;48.576;9.180;2024-03-25T05:48:19;4.00;;;2.80;;
11935;SDS011;6027;48.576;9.180;2024-03-25T05:50:45;4.27;;;2.50;;
11935;SDS011;6027;48.576;9.180;2024-03-25T05:53:11;7.20;;;3.00;;
11935;SDS011;6027;48.576;9.180;2024-03-25T05:55:37;6.70;;;3.03;;
11935;SDS011;6027;48.576;9.180;2024-03-25T05:58:02;4.83;;;2.83;;
11935;SDS011;6027;48.576;9.180;2024-03-25T06:00:30;4.40;;;2.57;;
11935;SDS011;6027;48.576;9.180;2024-03-25T06:02:56;7.70;;;3.00;;
11935;SDS011;6027;48.576;9.180;2024-03-25T06:05:22;4.00;;;2.53;;
11935;SDS011;6027;48.576;9.180;2024-03-25T06:07:47;8.57;;;5.47;;
11935;SDS011;6027;48.576;9.180;2024-03-25T06:10:13;4.67;;;2.60;;
11935;SDS011;6027;48.576;9.180;2024-03-25T06:12:38;3.97;;;2.93;;
11935;SDS011;6027;48.576;9.180;2024-03-25T06:15:04;3.83;;;2.60;;
11935;SDS011;6027;48.576;9.180;2024-03-25T06:17:30;4.70;;;2.43;;
11935;SDS011;6027;48.576;9.180;2024-03-25T06:19:55;4.10;;;2.63;;
11935;SDS011;6027;48.576;9.180;2024-03-25T06:22:20;5.47;;;2.83;;
11935;SDS011;6027;48.576;9.180;2024-03-25T06:24:46;5.40;;;2.83;;
11935;SDS011;6027;48.576;9.180;2024-03-25T06:27:14;4.77;;;2.57;;
11935;SDS011;6027;48.576;9.180;2024-03-25T06:29:39;3.73;;;2.80;;
11935;SDS011;6027;48.576;9.180;2024-03-25T06:32:05;3.93;;;2.53;;
11935;SDS011;6027;48.576;9.180;2024-03-25T06:34:49;6.23;;;2.93;;
11935;SDS011;6027;48.576;9.180;2024-03-25T06:37:15;4.67;;;2.70;;
11935;SDS011;6027;48.576;9.180;2024-03-25T06:39:40;3.97;;;2.50;;
11935;SDS011;6027;48.576;9.180;2024-03-25T06:42:06;5.77;;;2.90;;
11935;SDS011;6027;48.576;9.180;2024-03-25T06:44:32;3.97;;;3.00;;
11935;SDS011;6027;48.576;9.180;2024-03-25T06:46:58;5.87;;;3.00;;
11935;SDS011;6027;48.576;9.180;2024-03-25T06:49:23;3.67;;;2.90;;
11935;SDS011;6027;48.576;9.180;2024-03-25T06:51:48;4.17;;;3.10;;
11935;SDS011;6027;48.576;9.180;2024-03-25T06:54:14;6.07;;;3.90;;
11935;SDS011;6027;48.576;9.180;2024-03-25T06:56:39;7.27;;;4.80;;
11935;SDS011;6027;48.576;9.180;2024-03-25T06:59:05;3.80;;;2.40;;
11935;SDS011;6027;48.576;9.180;2024-03-25T07:01:31;4.90;;;2.70;;
11935;SDS011;6027;48.576;9.180;2024-03-25T07:03:57;5.73;;;2.60;;
11935;SDS011;6027;48.576;9.180;2024-03-25T07:06:22;4.73;;;2.67;;
11935;SDS011;6027;48.576;9.180;2024-03-25T07:08:48;7.47;;;2.73;;
11935;SDS011;6027;48.576;9.180;2024-03-25T07:11:13;5.30;;;2.83;;
11935;SDS011;6027;48.576;9.180;2024-03-25T07:13:39;4.47;;;2.53;;
11935;SDS011;6027;48.576;9.180;2024-03-25T07:16:04;4.70;;;2.43;;
11935;SDS011;6027;48.576;9.180;2024-03-25T07:18:30;4.67;;;2.63;;
11935;SDS011;6027;48.576;9.180;2024-03-25T07:20:55;3.37;;;2.37;;
11935;SDS011;6027;48.576;9.180;2024-03-25T07:23:21;5.33;;;2.80;;
11935;SDS011;6027;48.576;9.180;2024-03-25T07:25:46;6.40;;;3.10;;
11935;SDS011;6027;48.576;9.180;2024-03-25T07:28:11;4.00;;;3.07;;
11935;SDS011;6027;48.576;9.180;2024-03-25T07:30:37;6.47;;;3.10;;
11935;SDS011;6027;48.576;9.180;2024-03-25T07:33:02;4.33;;;2.80;;
11935;SDS011;6027;48.576;9.180;2024-03-25T07:35:28;4.43;;;2.63;;
11935;SDS011;6027;48.576;9.180;2024-03-25T07:37:53;6.20;;;3.00;;
11935;SDS011;6027;48.576;9.180;2024-03-25T07:40:19;4.03;;;2.70;;
11935;SDS011;6027;48.576;9.180;2024-03-25T07:42:46;6.20;;;2.73;;
11935;SDS011;6027;48.576;9.180;2024-03-25T07:45:11;4.53;;;2.80;;
11935;SDS011;6027;48.576;9.180;2024-03-25T07:47:37;5.83;;;3.17;;
11935;SDS011;6027;48.576;9.180;2024-03-25T07:50:03;4.20;;;2.70;;
11935;SDS011;6027;48.576;9.180;2024-03-25T07:52:28;5.23;;;3.03;;
11935;SDS011;6027;48.576;9.180;2024-03-25T07:54:54;4.50;;;2.83;;
11935;SDS011;6027;48.576;9.180;2024-03-25T07:57:20;5.77;;;2.43;;
11935;SDS011;6027;48.576;9.180;2024-03-25T07:59:46;6.20;;;2.60;;
11935;SDS011;6027;48.576;9.180;2024-03-25T08:02:11;5.43;;;2.73;;
11935;SDS011;6027;48.576;9.180;2024-03-25T08:04:37;4.83;;;2.60;;
11935;SDS011;6027;48.576;9.180;2024-03-25T08:07:02;4.17;;;2.67;;
11935;SDS011;6027;48.576;9.180;2024-03-25T08:09:28;5.37;;;2.83;;
11935;SDS011;6027;48.576;9.180;2024-03-25T08:11:54;5.63;;;3.00;;
11935;SDS011;6027;48.576;9.180;2024-03-25T08:14:20;5.90;;;3.10;;
11935;SDS011;6027;48.576;9.180;2024-03-25T08:16:45;4.00;;;2.40;;
11935;SDS011;6027;48.576;9.180;2024-03-25T08:19:11;6.27;;;3.03;;
11935;SDS011;6027;48.576;9.180;2024-03-25T08:21:37;4.93;;;2.67;;
11935;SDS011;6027;48.576;9.180;2024-03-25T08:24:02;3.47;;;2.80;;
11935;SDS011;6027;48.576;9.180;2024-03-25T08:26:28;6.43;;;2.73;;
11935;SDS011;6027;48.576;9.180;2024-03-25T08:28:53;4.67;;;2.57;;
11935;SDS011;6027;48.576;9.180;2024-03-25T08:31:19;5.88;;;2.90;;
11935;SDS011;6027;48.576;9.180;2024-03-25T08:33:44;3.60;;;2.40;;
11935;SDS011;6027;48.576;9.180;2024-03-25T08:36:09;5.25;;;3.10;;
11935;SDS011;6027;48.576;9.180;2024-03-25T08:38:35;4.10;;;2.63;;
11935;SDS011;6027;48.576;9.180;2024-03-25T08:41:00;5.07;;;2.80;;
11935;SDS011;6027;48.576;9.180;2024-03-25T08:43:26;4.78;;;2.63;;
11935;SDS011;6027;48.576;9.180;2024-03-25T08:45:51;5.35;;;2.47;;
11935;SDS011;6027;48.576;9.180;2024-03-25T08:48:17;5.22;;;3.03;;
11935;SDS011;6027;48.576;9.180;2024-03-25T08:50:42;5.47;;;2.38;;
11935;SDS011;6027;48.576;9.180;2024-03-25T08:53:08;5.28;;;2.47;;
11935;SDS011;6027;48.576;9.180;2024-03-25T08:55:33;4.13;;;2.40;;
11935;SDS011;6027;48.576;9.180;2024-03-25T08:57:59;4.25;;;2.50;;
11935;SDS011;6027;48.576;9.180;2024-03-25T09:00:25;5.30;;;2.55;;
11935;SDS011;6027;48.576;9.180;2024-03-25T09:02:50;4.00;;;2.40;;
11935;SDS011;6027;48.576;9.180;2024-03-25T09:05:16;5.40;;;2.53;;
11935;SDS011;6027;48.576;9.180;2024-03-25T09:07:43;4.80;;;2.63;;
11935;SDS011;6027;48.576;9.180;2024-03-25T09:10:18;4.10;;;2.20;;
11935;SDS011;6027;48.576;9.180;2024-03-25T09:13:02;4.68;;;2.60;;
11935;SDS011;6027;48.576;9.180;2024-03-25T09:15:28;5.32;;;2.50;;
11935;SDS011;6027;48.576;9.180;2024-03-25T09:17:54;4.72;;;2.13;;
11935;SDS011;6027;48.576;9.180;2024-03-25T09:20:20;3.97;;;2.25;;
11935;SDS011;6027;48.576;9.180;2024-03-25T09:22:46;3.97;;;2.40;;
11935;SDS011;6027;48.576;9.180;2024-03-25T09:25:13;4.93;;;2.50;;
11935;SDS011;6027;48.576;9.180;2024-03-25T09:27:49;3.80;;;2.50;;
11935;SDS011;6027;48.576;9.180;2024-03-25T09:30:15;4.15;;;2.35;;
11935;SDS011;6027;48.576;9.180;2024-03-25T09:32:42;3.88;;;1.90;;
11935;SDS011;6027;48.576;9.180;2024-03-25T09:35:08;4.57;;;2.17;;
11935;SDS011;6027;48.576;9.180;2024-03-25T09:37:34;4.20;;;2.30;;
11935;SDS011;6027;48.576;9.180;2024-03-25T09:40:06;3.95;;;2.03;;
11935;SDS011;6027;48.576;9.180;2024-03-25T09:50:06;3.47;;;2.13;;
11935;SDS011;6027;48.576;9.180;2024-03-25T09:52:33;3.53;;;1.88;;
11935;SDS011;6027;48.576;9.180;2024-03-25T09:54:59;4.35;;;2.00;;
11935;SDS011;6027;48.576;9.180;2024-03-25T09:57:24;4.85;;;1.98;;
11935;SDS011;6027;48.576;9.180;2024-03-25T09:59:50;3.38;;;1.50;;
11935;SDS011;6027;48.576;9.180;2024-03-25T10:02:16;4.43;;;1.58;;
11935;SDS011;6027;48.576;9.180;2024-03-25T10:04:47;2.67;;;1.63;;
11935;SDS011;6027;48.576;9.180;2024-03-25T10:07:22;3.53;;;1.30;;
11935;SDS011;6027;48.576;9.180;2024-03-25T10:09:53;1.92;;;1.20;;
11935;SDS011;6027;48.576;9.180;2024-03-25T10:12:18;2.40;;;1.30;;
11935;SDS011;6027;48.576;9.180;2024-03-25T10:14:45;1.73;;;1.02;;
11935;SDS011;6027;48.576;9.180;2024-03-25T10:17:10;2.03;;;1.30;;
11935;SDS011;6027;48.576;9.180;2024-03-25T10:19:36;2.88;;;1.60;;
11935;SDS011;6027;48.576;9.180;2024-03-25T10:22:03;1.67;;;1.35;;
11935;SDS011;6027;48.576;9.180;2024-03-25T10:24:42;3.00;;;1.80;;
11935;SDS011;6027;48.576;9.180;2024-03-25T10:27:21;2.90;;;1.52;;
11935;SDS011;6027;48.576;9.180;2024-03-25T10:29:48;4.38;;;1.67;;
11935;SDS011;6027;48.576;9.180;2024-03-25T10:32:16;2.70;;;1.60;;
11935;SDS011;6027;48.576;9.180;2024-03-25T10:34:42;3.47;;;1.75;;
11935;SDS011;6027;48.576;9.180;2024-03-25T10:37:11;4.88;;;2.13;;
11935;SDS011;6027;48.576;9.180;2024-03-25T10:39:39;3.40;;;1.73;;
11935;SDS011;6027;48.576;9.180;2024-03-25T10:42:08;2.47;;;1.50;;
11935;SDS011;6027;48.576;9.180;2024-03-25T10:44:38;3.30;;;1.95;;
11935;SDS011;6027;48.576;9.180;2024-03-25T10:47:04;2.53;;;2.03;;
11935;SDS011;6027;48.576;9.180;2024-03-25T10:49:51;4.60;;;1.60;;
11935;SDS011;6027;48.576;9.180;2024-03-25T10:52:24;4.97;;;1.90;;
11935;SDS011;6027;48.576;9.180;2024-03-25T10:54:51;2.60;;;1.45;;
11935;SDS011;6027;48.576;9.180;2024-03-25T10:57:18;2.42;;;1.63;;
11935;SDS011;6027;48.576;9.180;2024-03-25T10:59:44;2.80;;;1.60;;
11935;SDS011;6027;48.576;9.180;2024-03-25T11:02:10;1.83;;;1.30;;
11935;SDS011;6027;48.576;9.180;2024-03-25T11:04:36;2.80;;;1.30;;
11935;SDS011;6027;48.576;9.180;2024-03-25T11:07:15;1.67;;;1.27;;
11935;SDS011;6027;48.576;9.180;2024-03-25T11:09:41;1.50;;;1.38;;
11935;SDS011;6027;48.576;9.180;2024-03-25T11:12:09;2.45;;;1.75;;
11935;SDS011;6027;48.576;9.180;2024-03-25T11:14:35;2.30;;;1.20;;
11935;SDS011;6027;48.576;9.180;2024-03-25T11:17:01;2.45;;;1.30;;
11935;SDS011;6027;48.576;9.180;2024-03-25T11:19:27;1.80;;;1.40;;
11935;SDS011;6027;48.576;9.180;2024-03-25T11:22:09;1.48;;;1.15;;
11935;SDS011;6027;48.576;9.180;2024-03-25T11:24:36;2.92;;;1.00;;
11935;SDS011;6027;48.576;9.180;2024-03-25T11:27:03;3.00;;;1.30;;
11935;SDS011;6027;48.576;9.180;2024-03-25T11:29:31;2.55;;;1.10;;
11935;SDS011;6027;48.576;9.180;2024-03-25T11:31:57;1.52;;;1.10;;
11935;SDS011;6027;48.576;9.180;2024-03-25T11:34:26;1.98;;;1.00;;
11935;SDS011;6027;48.576;9.180;2024-03-25T11:36:52;2.33;;;1.10;;
11935;SDS011;6027;48.576;9.180;2024-03-25T11:39:21;1.58;;;1.10;;
11935;SDS011;6027;48.576;9.180;2024-03-25T11:41:47;3.17;;;1.52;;
11935;SDS011;6027;48.576;9.180;2024-03-25T11:44:12;2.28;;;1.27;;
11935;SDS011;6027;48.576;9.180;2024-03-25T11:46:39;1.73;;;1.30;;
11935;SDS011;6027;48.576;9.180;2024-03-25T11:49:12;1.90;;;1.20;;
11935;SDS011;6027;48.576;9.180;2024-03-25T11:51:39;3.45;;;1.27;;
11935;SDS011;6027;48.576;9.180;2024-03-25T11:54:12;1.75;;;1.35;;
11935;SDS011;6027;48.576;9.180;2024-03-25T11:56:38;1.45;;;0.98;;
11935;SDS011;6027;48.576;9.180;2024-03-25T11:59:04;2.35;;;1.20;;
11935;SDS011;6027;48.576;9.180;2024-03-25T12:01:30;2.38;;;1.17;;
11935;SDS011;6027;48.576;9.180;2024-03-25T12:03:55;4.05;;;1.13;;
11935;SDS011;6027;48.576;9.180;2024-03-25T12:06:21;3.47;;;0.90;;
11935;SDS011;6027;48.576;9.180;2024-03-25T12:08:47;2.08;;;1.25;;
11935;SDS011;6027;48.576;9.180;2024-03-25T12:11:31;3.03;;;1.00;;
11935;SDS011;6027;48.576;9.180;2024-03-25T12:13:57;1.63;;;1.30;;
11935;SDS011;6027;48.576;9.180;2024-03-25T12:16:23;3.95;;;1.20;;
11935;SDS011;6027;48.576;9.180;2024-03-25T12:18:49;2.17;;;1.30;;
11935;SDS011;6027;48.576;9.180;2024-03-25T12:21:14;2.30;;;1.27;;
11935;SDS011;6027;48.576;9.180;2024-03-25T12:23:40;4.47;;;1.33;;
11935;SDS011;6027;48.576;9.180;2024-03-25T12:26:07;1.92;;;1.35;;
11935;SDS011;6027;48.576;9.180;2024-03-25T12:28:35;1.88;;;1.30;;
11935;SDS011;6027;48.576;9.180;2024-03-25T12:31:03;1.95;;;1.30;;
11935;SDS011;6027;48.576;9.180;2024-03-25T12:33:45;2.67;;;1.40;;
11935;SDS011;6027;48.576;9.180;2024-03-25T12:36:13;2.97;;;1.55;;
11935;SDS011;6027;48.576;9.180;2024-03-25T12:38:39;3.58;;;1.63;;
11935;SDS011;6027;48.576;9.180;2024-03-25T12:41:05;2.85;;;1.52;;
11935;SDS011;6027;48.576;9.180;2024-03-25T12:43:35;3.92;;;1.30;;
11935;SDS011;6027;48.576;9.180;2024-03-25T12:46:01;3.35;;;1.42;;
11935;SDS011;6027;48.576;9.180;2024-03-25T12:48:30;2.88;;;1.52;;
11935;SDS011;6027;48.576;9.180;2024-03-25T12:50:56;3.72;;;1.60;;
11935;SDS011;6027;48.576;9.180;2024-03-25T12:53:21;2.55;;;1.52;;
11935;SDS011;6027;48.576;9.180;2024-03-25T12:55:47;2.25;;;1.30;;
11935;SDS011;6027;48.576;9.180;2024-03-25T12:58:13;4.72;;;1.42;;
11935;SDS011;6027;48.576;9.180;2024-03-25T13:00:39;2.90;;;1.40;;
11935;SDS011;6027;48.576;9.180;2024-03-25T13:03:06;4.10;;;1.48;;
11935;SDS011;6027;48.576;9.180;2024-03-25T13:05:33;4.45;;;2.47;;
11935;SDS011;6027;48.576;9.180;2024-03-25T13:07:59;3.33;;;1.70;;
11935;SDS011;6027;48.576;9.180;2024-03-25T13:10:25;2.22;;;1.40;;
11935;SDS011;6027;48.576;9.180;2024-03-25T13:12:51;3.67;;;1.40;;
11935;SDS011;6027;48.576;9.180;2024-03-25T13:15:16;2.30;;;1.85;;
11935;SDS011;6027;48.576;9.180;2024-03-25T13:17:42;3.38;;;1.73;;
11935;SDS011;6027;48.576;9.180;2024-03-25T13:20:07;3.85;;;1.67;;
11935;SDS011;6027;48.576;9.180;2024-03-25T13:22:33;1.98;;;1.38;;
11935;SDS011;6027;48.576;9.180;2024-03-25T13:24:59;3.95;;;2.00;;
11935;SDS011;6027;48.576;9.180;2024-03-25T13:27:25;1.85;;;1.20;;
11935;SDS011;6027;48.576;9.180;2024-03-25T13:29:51;3.53;;;1.80;;
11935;SDS011;6027;48.576;9.180;2024-03-25T13:32:18;1.77;;;1.35;;
11935;SDS011;6027;48.576;9.180;2024-03-25T13:34:44;3.70;;;1.60;;
11935;SDS011;6027;48.576;9.180;2024-03-25T13:37:09;2.90;;;1.60;;
11935;SDS011;6027;48.576;9.180;2024-03-25T13:39:35;2.67;;;1.50;;
11935;SDS011;6027;48.576;9.180;2024-03-25T13:42:00;4.13;;;1.73;;
11935;SDS011;6027;48.576;9.180;2024-03-25T13:44:25;1.95;;;1.30;;
11935;SDS011;6027;48.576;9.180;2024-03-25T13:46:51;3.63;;;1.52;;
11935;SDS011;6027;48.576;9.180;2024-03-25T13:49:16;3.05;;;1.63;;
11935;SDS011;6027;48.576;9.180;2024-03-25T13:51:43;1.98;;;1.42;;
11935;SDS011;6027;48.576;9.180;2024-03-25T13:54:09;2.45;;;1.55;;
11935;SDS011;6027;48.576;9.180;2024-03-25T13:56:34;4.65;;;1.65;;
11935;SDS011;6027;48.576;9.180;2024-03-25T13:59:00;3.38;;;1.50;;
11935;SDS011;6027;48.576;9.180;2024-03-25T14:01:28;3.22;;;1.25;;
11935;SDS011;6027;48.576;9.180;2024-03-25T14:03:53;2.75;;;1.40;;
11935;SDS011;6027;48.576;9.180;2024-03-25T14:06:19;5.50;;;1.55;;
11935;SDS011;6027;48.576;9.180;2024-03-25T14:08:44;2.00;;;1.10;;
11935;SDS011;6027;48.576;9.180;2024-03-25T14:11:10;1.70;;;1.13;;
11935;SDS011;6027;48.576;9.180;2024-03-25T14:13:36;3.65;;;1.40;;
11935;SDS011;6027;48.576;9.180;2024-03-25T14:16:01;2.70;;;1.40;;
11935;SDS011;6027;48.576;9.180;2024-03-25T14:18:27;1.90;;;1.30;;
11935;SDS011;6027;48.576;9.180;2024-03-25T14:20:53;3.03;;;1.20;;
11935;SDS011;6027;48.576;9.180;2024-03-25T14:23:18;2.08;;;1.40;;
11935;SDS011;6027;48.576;9.180;2024-03-25T14:25:47;2.03;;;1.30;;
11935;SDS011;6027;48.576;9.180;2024-03-25T14:28:12;2.83;;;1.30;;
11935;SDS011;6027;48.576;9.180;2024-03-25T14:30:38;3.13;;;1.58;;
11935;SDS011;6027;48.576;9.180;2024-03-25T14:33:04;3.05;;;1.60;;
11935;SDS011;6027;48.576;9.180;2024-03-25T14:35:30;2.67;;;1.40;;
11935;SDS011;6027;48.576;9.180;2024-03-25T14:37:55;1.92;;;1.27;;
11935;SDS011;6027;48.576;9.180;2024-03-25T14:40:20;2.47;;;1.10;;
11935;SDS011;6027;48.576;9.180;2024-03-25T14:42:52;2.22;;;1.30;;
11935;SDS011;6027;48.576;9.180;2024-03-25T14:45:17;2.63;;;1.08;;
11935;SDS011;6027;48.576;9.180;2024-03-25T14:47:43;2.10;;;1.05;;
11935;SDS011;6027;48.576;9.180;2024-03-25T14:50:08;3.28;;;1.30;;
11935;SDS011;6027;48.576;9.180;2024-03-25T14:52:34;2.63;;;1.15;;
11935;SDS011;6027;48.576;9.180;2024-03-25T14:55:01;2.75;;;1.20;;
11935;SDS011;6027;48.576;9.180;2024-03-25T14:57:26;3.13;;;1.02;;
11935;SDS011;6027;48.576;9.180;2024-03-25T14:59:52;1.98;;;1.20;;
11935;SDS011;6027;48.576;9.180;2024-03-25T15:02:17;2.97;;;1.45;;